sensor_id;sensor_type;location;lat;lon;timestamp;P1;durP1;ratioP1;P2;durP2;ratioP2
10333;SDS011;5212;47.892;16.406;2023-12-29T00:00:21;8.67;;;5.27;;
10333;SDS011;5212;47.892;16.406;2023-12-29T00:02:48;10.87;;;6.03;;
10333;SDS011;5212;47.892;16.406;2023-12-29T00:05:15;8.27;;;5.60;;
10333;SDS011;5212;47.892;16.406;2023-12-29T00:07:43;11.23;;;6.57;;
10333;SDS011;5212;47.892;16.406;2023-12-29T00:10:10;8.73;;;5.20;;
10333;SDS011;5212;47.892;16.406;2023-12-29T00:12:36;8.67;;;5.47;;
10333;SDS011;5212;47.892;16.406;2023-12-29T00:15:03;8.90;;;5.30;;
10333;SDS011;5212;47.892;16.406;2023-12-29T00:17:31;8.30;;;4.73;;
10333;SDS011;5212;47.892;16.406;2023-12-29T00:20:02;9.10;;;5.07;;
10333;SDS011;5212;47.892;16.406;2023-12-29T00:22:29;9.37;;;5.63;;
10333;SDS011;5212;47.892;16.406;2023-12-29T00:24:57;7.30;;;5.03;;
10333;SDS011;5212;47.892;16.406;2023-12-29T00:27:24;8.20;;;4.80;;
10333;SDS011;5212;47.892;16.406;2023-12-29T00:29:50;8.43;;;4.60;;
10333;SDS011;5212;47.892;16.406;2023-12-29T00:32:17;7.03;;;4.77;;
10333;SDS011;5212;47.892;16.406;2023-12-29T00:34:44;12.23;;;5.83;;
10333;SDS011;5212;47.892;16.406;2023-12-29T00:37:10;10.70;;;6.10;;
10333;SDS011;5212;47.892;16.406;2023-12-29T00:39:37;8.77;;;5.67;;
10333;SDS011;5212;47.892;16.406;2023-12-29T00:42:06;8.47;;;4.90;;
10333;SDS011;5212;47.892;16.406;2023-12-29T00:44:33;9.70;;;5.53;;
10333;SDS011;5212;47.892;16.406;2023-12-29T00:47:00;8.30;;;4.97;;
10333;SDS011;5212;47.892;16.406;2023-12-29T00:49:27;7.90;;;4.77;;
10333;SDS011;5212;47.892;16.406;2023-12-29T00:51:53;8.87;;;5.30;;
10333;SDS011;5212;47.892;16.406;2023-12-29T00:54:20;7.67;;;5.20;;
10333;SDS011;5212;47.892;16.406;2023-12-29T00:56:49;8.60;;;5.60;;
10333;SDS011;5212;47.892;16.406;2023-12-29T00:59:18;7.53;;;4.97;;
10333;SDS011;5212;47.892;16.406;2023-12-29T01:01:45;7.40;;;4.80;;
10333;SDS011;5212;47.892;16.406;2023-12-29T01:04:12;7.70;;;5.00;;
10333;SDS011;5212;47.892;16.406;2023-12-29T01:06:39;8.23;;;5.20;;
10333;SDS011;5212;47.892;16.406;2023-12-29T01:09:06;7.40;;;4.80;;
10333;SDS011;5212;47.892;16.406;2023-12-29T01:11:33;6.63;;;4.07;;
10333;SDS011;5212;47.892;16.406;2023-12-29T01:14:00;7.13;;;4.53;;
10333;SDS011;5212;47.892;16.406;2023-12-29T01:16:28;7.40;;;5.10;;
10333;SDS011;5212;47.892;16.406;2023-12-29T01:18:54;7.70;;;5.17;;
10333;SDS011;5212;47.892;16.406;2023-12-29T01:21:21;7.67;;;4.43;;
10333;SDS011;5212;47.892;16.406;2023-12-29T01:23:47;8.60;;;5.03;;
10333;SDS011;5212;47.892;16.406;2023-12-29T01:26:14;9.50;;;5.37;;
10333;SDS011;5212;47.892;16.406;2023-12-29T01:28:41;7.87;;;4.43;;
10333;SDS011;5212;47.892;16.406;2023-12-29T01:31:07;8.53;;;5.47;;
10333;SDS011;5212;47.892;16.406;2023-12-29T01:33:37;7.40;;;5.30;;
10333;SDS011;5212;47.892;16.406;2023-12-29T01:36:04;7.50;;;4.73;;
10333;SDS011;5212;47.892;16.406;2023-12-29T01:38:31;7.13;;;4.37;;
10333;SDS011;5212;47.892;16.406;2023-12-29T01:40:58;6.83;;;5.07;;
10333;SDS011;5212;47.892;16.406;2023-12-29T01:43:24;7.43;;;5.13;;
10333;SDS011;5212;47.892;16.406;2023-12-29T01:45:51;5.97;;;4.60;;
10333;SDS011;5212;47.892;16.406;2023-12-29T01:48:18;7.50;;;4.90;;
10333;SDS011;5212;47.892;16.406;2023-12-29T01:50:46;7.20;;;5.07;;
10333;SDS011;5212;47.892;16.406;2023-12-29T01:53:13;11.30;;;4.93;;
10333;SDS011;5212;47.892;16.406;2023-12-29T01:55:39;8.27;;;5.13;;
10333;SDS011;5212;47.892;16.406;2023-12-29T01:58:06;7.57;;;4.97;;
10333;SDS011;5212;47.892;16.406;2023-12-29T02:00:33;8.30;;;5.30;;
10333;SDS011;5212;47.892;16.406;2023-12-29T02:03:00;7.57;;;4.80;;
10333;SDS011;5212;47.892;16.406;2023-12-29T02:05:26;7.30;;;4.77;;
10333;SDS011;5212;47.892;16.406;2023-12-29T02:07:57;8.03;;;5.37;;
10333;SDS011;5212;47.892;16.406;2023-12-29T02:10:24;9.97;;;5.97;;
10333;SDS011;5212;47.892;16.406;2023-12-29T02:12:51;8.70;;;5.47;;
10333;SDS011;5212;47.892;16.406;2023-12-29T02:15:19;8.50;;;4.93;;
10333;SDS011;5212;47.892;16.406;2023-12-29T02:17:46;8.67;;;5.07;;
10333;SDS011;5212;47.892;16.406;2023-12-29T02:20:15;9.53;;;5.67;;
10333;SDS011;5212;47.892;16.406;2023-12-29T02:22:42;8.37;;;5.67;;
10333;SDS011;5212;47.892;16.406;2023-12-29T02:25:10;8.20;;;5.80;;
10333;SDS011;5212;47.892;16.406;2023-12-29T02:27:41;7.87;;;5.40;;
10333;SDS011;5212;47.892;16.406;2023-12-29T02:30:11;9.17;;;5.23;;
10333;SDS011;5212;47.892;16.406;2023-12-29T02:32:42;7.83;;;4.83;;
10333;SDS011;5212;47.892;16.406;2023-12-29T02:35:10;9.03;;;5.10;;
10333;SDS011;5212;47.892;16.406;2023-12-29T02:37:38;7.87;;;5.00;;
10333;SDS011;5212;47.892;16.406;2023-12-29T02:40:05;9.33;;;4.90;;
10333;SDS011;5212;47.892;16.406;2023-12-29T02:42:34;8.13;;;4.83;;
10333;SDS011;5212;47.892;16.406;2023-12-29T02:45:01;10.13;;;5.27;;
10333;SDS011;5212;47.892;16.406;2023-12-29T02:47:28;8.33;;;5.43;;
10333;SDS011;5212;47.892;16.406;2023-12-29T02:49:55;8.63;;;4.27;;
10333;SDS011;5212;47.892;16.406;2023-12-29T02:52:21;8.87;;;4.97;;
10333;SDS011;5212;47.892;16.406;2023-12-29T02:54:48;7.73;;;5.20;;
10333;SDS011;5212;47.892;16.406;2023-12-29T02:57:15;8.30;;;4.57;;
10333;SDS011;5212;47.892;16.406;2023-12-29T02:59:43;8.73;;;5.13;;
10333;SDS011;5212;47.892;16.406;2023-12-29T03:02:09;9.03;;;5.07;;
10333;SDS011;5212;47.892;16.406;2023-12-29T03:04:36;8.13;;;4.67;;
10333;SDS011;5212;47.892;16.406;2023-12-29T03:07:03;8.77;;;5.47;;
10333;SDS011;5212;47.892;16.406;2023-12-29T03:09:30;9.00;;;5.07;;
10333;SDS011;5212;47.892;16.406;2023-12-29T03:11:56;7.30;;;4.63;;
10333;SDS011;5212;47.892;16.406;2023-12-29T03:14:23;8.57;;;4.93;;
10333;SDS011;5212;47.892;16.406;2023-12-29T03:16:51;7.17;;;4.70;;
10333;SDS011;5212;47.892;16.406;2023-12-29T03:19:18;8.20;;;4.60;;
10333;SDS011;5212;47.892;16.406;2023-12-29T03:21:44;7.37;;;4.03;;
10333;SDS011;5212;47.892;16.406;2023-12-29T03:24:11;7.03;;;4.23;;
10333;SDS011;5212;47.892;16.406;2023-12-29T03:26:37;7.40;;;4.67;;
10333;SDS011;5212;47.892;16.406;2023-12-29T03:29:04;6.20;;;4.23;;
10333;SDS011;5212;47.892;16.406;2023-12-29T03:31:31;7.17;;;4.07;;
10333;SDS011;5212;47.892;16.406;2023-12-29T03:33:59;6.23;;;4.60;;
10333;SDS011;5212;47.892;16.406;2023-12-29T03:36:26;5.97;;;4.07;;
10333;SDS011;5212;47.892;16.406;2023-12-29T03:38:52;8.67;;;4.63;;
10333;SDS011;5212;47.892;16.406;2023-12-29T03:41:19;8.77;;;4.40;;
10333;SDS011;5212;47.892;16.406;2023-12-29T03:43:45;8.43;;;4.57;;
10333;SDS011;5212;47.892;16.406;2023-12-29T03:46:16;8.30;;;4.77;;
10333;SDS011;5212;47.892;16.406;2023-12-29T03:48:43;7.17;;;3.83;;
10333;SDS011;5212;47.892;16.406;2023-12-29T03:51:11;6.13;;;4.20;;
10333;SDS011;5212;47.892;16.406;2023-12-29T03:53:38;6.27;;;4.03;;
10333;SDS011;5212;47.892;16.406;2023-12-29T03:56:06;5.70;;;3.77;;
10333;SDS011;5212;47.892;16.406;2023-12-29T03:58:33;6.47;;;4.00;;
10333;SDS011;5212;47.892;16.406;2023-12-29T04:01:00;6.90;;;4.00;;
10333;SDS011;5212;47.892;16.406;2023-12-29T04:03:26;4.93;;;3.93;;
10333;SDS011;5212;47.892;16.406;2023-12-29T04:05:53;6.53;;;3.93;;
10333;SDS011;5212;47.892;16.406;2023-12-29T04:08:21;6.90;;;4.17;;
10333;SDS011;5212;47.892;16.406;2023-12-29T04:10:48;6.90;;;4.07;;
10333;SDS011;5212;47.892;16.406;2023-12-29T04:13:14;6.00;;;3.77;;
10333;SDS011;5212;47.892;16.406;2023-12-29T04:15:41;6.47;;;4.23;;
10333;SDS011;5212;47.892;16.406;2023-12-29T04:18:08;8.87;;;4.63;;
10333;SDS011;5212;47.892;16.406;2023-12-29T04:20:34;5.70;;;4.27;;
10333;SDS011;5212;47.892;16.406;2023-12-29T04:23:01;4.43;;;3.70;;
10333;SDS011;5212;47.892;16.406;2023-12-29T04:25:30;7.70;;;4.33;;
10333;SDS011;5212;47.892;16.406;2023-12-29T04:27:56;5.43;;;3.83;;
10333;SDS011;5212;47.892;16.406;2023-12-29T04:30:23;6.70;;;4.30;;
10333;SDS011;5212;47.892;16.406;2023-12-29T04:32:50;6.37;;;3.47;;
10333;SDS011;5212;47.892;16.406;2023-12-29T04:35:16;6.30;;;4.00;;
10333;SDS011;5212;47.892;16.406;2023-12-29T04:37:43;5.37;;;3.73;;
10333;SDS011;5212;47.892;16.406;2023-12-29T04:40:11;4.67;;;3.40;;
10333;SDS011;5212;47.892;16.406;2023-12-29T04:42:39;6.33;;;3.93;;
10333;SDS011;5212;47.892;16.406;2023-12-29T04:45:06;6.87;;;3.83;;
10333;SDS011;5212;47.892;16.406;2023-12-29T04:47:33;6.50;;;4.10;;
10333;SDS011;5212;47.892;16.406;2023-12-29T04:49:59;6.57;;;4.10;;
10333;SDS011;5212;47.892;16.406;2023-12-29T04:52:27;6.03;;;3.93;;
10333;SDS011;5212;47.892;16.406;2023-12-29T04:54:53;4.83;;;3.60;;
10333;SDS011;5212;47.892;16.406;2023-12-29T04:57:20;5.53;;;3.77;;
10333;SDS011;5212;47.892;16.406;2023-12-29T04:59:48;5.70;;;3.43;;
10333;SDS011;5212;47.892;16.406;2023-12-29T05:02:15;4.30;;;3.10;;
10333;SDS011;5212;47.892;16.406;2023-12-29T05:04:41;5.37;;;3.50;;
10333;SDS011;5212;47.892;16.406;2023-12-29T05:07:08;6.43;;;3.67;;
10333;SDS011;5212;47.892;16.406;2023-12-29T05:09:35;5.10;;;2.83;;
10333;SDS011;5212;47.892;16.406;2023-12-29T05:12:02;4.30;;;2.60;;
10333;SDS011;5212;47.892;16.406;2023-12-29T05:14:29;4.50;;;2.87;;
10333;SDS011;5212;47.892;16.406;2023-12-29T05:16:57;4.90;;;3.13;;
10333;SDS011;5212;47.892;16.406;2023-12-29T05:19:24;3.83;;;2.80;;
10333;SDS011;5212;47.892;16.406;2023-12-29T05:21:50;4.10;;;2.47;;
10333;SDS011;5212;47.892;16.406;2023-12-29T05:24:19;5.47;;;3.47;;
10333;SDS011;5212;47.892;16.406;2023-12-29T05:26:45;3.80;;;2.47;;
10333;SDS011;5212;47.892;16.406;2023-12-29T05:29:12;4.57;;;3.17;;
10333;SDS011;5212;47.892;16.406;2023-12-29T05:31:39;4.00;;;2.90;;
10333;SDS011;5212;47.892;16.406;2023-12-29T05:34:06;4.47;;;3.23;;
10333;SDS011;5212;47.892;16.406;2023-12-29T05:36:35;4.47;;;3.17;;
10333;SDS011;5212;47.892;16.406;2023-12-29T05:39:02;5.17;;;3.47;;
10333;SDS011;5212;47.892;16.406;2023-12-29T05:41:29;4.27;;;3.47;;
10333;SDS011;5212;47.892;16.406;2023-12-29T05:43:56;5.27;;;3.70;;
10333;SDS011;5212;47.892;16.406;2023-12-29T05:46:23;4.93;;;3.43;;
10333;SDS011;5212;47.892;16.406;2023-12-29T05:48:50;6.57;;;3.70;;
10333;SDS011;5212;47.892;16.406;2023-12-29T05:51:18;6.67;;;3.87;;
10333;SDS011;5212;47.892;16.406;2023-12-29T05:53:45;5.30;;;3.37;;
10333;SDS011;5212;47.892;16.406;2023-12-29T05:56:12;5.87;;;3.63;;
10333;SDS011;5212;47.892;16.406;2023-12-29T05:58:40;4.00;;;2.80;;
10333;SDS011;5212;47.892;16.406;2023-12-29T06:01:06;3.90;;;3.10;;
10333;SDS011;5212;47.892;16.406;2023-12-29T06:03:33;3.63;;;2.83;;
10333;SDS011;5212;47.892;16.406;2023-12-29T06:06:00;4.47;;;3.07;;
10333;SDS011;5212;47.892;16.406;2023-12-29T06:08:28;3.70;;;3.00;;
10333;SDS011;5212;47.892;16.406;2023-12-29T06:10:55;4.43;;;3.50;;
10333;SDS011;5212;47.892;16.406;2023-12-29T06:13:22;6.40;;;4.43;;
10333;SDS011;5212;47.892;16.406;2023-12-29T06:15:48;4.53;;;3.77;;
10333;SDS011;5212;47.892;16.406;2023-12-29T06:18:15;5.30;;;3.50;;
10333;SDS011;5212;47.892;16.406;2023-12-29T06:20:42;4.70;;;3.47;;
10333;SDS011;5212;47.892;16.406;2023-12-29T06:23:09;4.23;;;3.10;;
10333;SDS011;5212;47.892;16.406;2023-12-29T06:25:37;5.90;;;3.47;;
10333;SDS011;5212;47.892;16.406;2023-12-29T06:28:04;5.63;;;3.57;;
10333;SDS011;5212;47.892;16.406;2023-12-29T06:30:32;6.00;;;3.83;;
10333;SDS011;5212;47.892;16.406;2023-12-29T06:32:58;4.90;;;3.23;;
10333;SDS011;5212;47.892;16.406;2023-12-29T06:35:25;4.53;;;3.30;;
10333;SDS011;5212;47.892;16.406;2023-12-29T06:37:52;3.83;;;2.90;;
10333;SDS011;5212;47.892;16.406;2023-12-29T06:40:19;4.40;;;3.40;;
10333;SDS011;5212;47.892;16.406;2023-12-29T06:42:47;4.87;;;3.10;;
10333;SDS011;5212;47.892;16.406;2023-12-29T06:45:14;6.13;;;3.07;;
10333;SDS011;5212;47.892;16.406;2023-12-29T06:47:41;3.47;;;2.80;;
10333;SDS011;5212;47.892;16.406;2023-12-29T06:50:08;5.13;;;3.60;;
10333;SDS011;5212;47.892;16.406;2023-12-29T06:52:37;5.40;;;3.37;;
10333;SDS011;5212;47.892;16.406;2023-12-29T06:55:05;4.43;;;3.30;;
10333;SDS011;5212;47.892;16.406;2023-12-29T06:57:32;5.87;;;3.23;;
10333;SDS011;5212;47.892;16.406;2023-12-29T07:00:00;4.77;;;3.33;;
10333;SDS011;5212;47.892;16.406;2023-12-29T07:02:27;3.50;;;3.07;;
10333;SDS011;5212;47.892;16.406;2023-12-29T07:04:54;4.83;;;3.50;;
10333;SDS011;5212;47.892;16.406;2023-12-29T07:07:20;4.40;;;3.10;;
10333;SDS011;5212;47.892;16.406;2023-12-29T07:09:47;3.90;;;2.80;;
10333;SDS011;5212;47.892;16.406;2023-12-29T07:12:14;4.07;;;2.93;;
10333;SDS011;5212;47.892;16.406;2023-12-29T07:14:41;6.23;;;3.87;;
10333;SDS011;5212;47.892;16.406;2023-12-29T07:17:09;14.73;;;8.53;;
10333;SDS011;5212;47.892;16.406;2023-12-29T07:19:36;30.00;;;19.30;;
10333;SDS011;5212;47.892;16.406;2023-12-29T07:22:03;12.23;;;7.37;;
10333;SDS011;5212;47.892;16.406;2023-12-29T07:24:31;7.77;;;4.73;;
10333;SDS011;5212;47.892;16.406;2023-12-29T07:26:58;9.17;;;5.63;;
10333;SDS011;5212;47.892;16.406;2023-12-29T07:29:25;4.97;;;3.70;;
10333;SDS011;5212;47.892;16.406;2023-12-29T07:31:52;6.27;;;4.13;;
10333;SDS011;5212;47.892;16.406;2023-12-29T07:34:20;5.43;;;3.57;;
10333;SDS011;5212;47.892;16.406;2023-12-29T07:36:47;6.03;;;4.23;;
10333;SDS011;5212;47.892;16.406;2023-12-29T07:39:14;5.53;;;3.47;;
10333;SDS011;5212;47.892;16.406;2023-12-29T07:41:41;4.43;;;3.50;;
10333;SDS011;5212;47.892;16.406;2023-12-29T07:44:09;5.57;;;3.47;;
10333;SDS011;5212;47.892;16.406;2023-12-29T07:46:37;4.60;;;3.00;;
10333;SDS011;5212;47.892;16.406;2023-12-29T07:49:03;5.53;;;3.70;;
10333;SDS011;5212;47.892;16.406;2023-12-29T07:51:32;4.27;;;3.13;;
10333;SDS011;5212;47.892;16.406;2023-12-29T07:53:59;4.53;;;3.07;;
10333;SDS011;5212;47.892;16.406;2023-12-29T07:56:25;4.67;;;3.17;;
10333;SDS011;5212;47.892;16.406;2023-12-29T07:58:52;5.87;;;3.87;;
10333;SDS011;5212;47.892;16.406;2023-12-29T08:01:19;7.13;;;4.40;;
10333;SDS011;5212;47.892;16.406;2023-12-29T08:03:45;5.80;;;4.00;;
10333;SDS011;5212;47.892;16.406;2023-12-29T08:06:12;5.97;;;4.20;;
10333;SDS011;5212;47.892;16.406;2023-12-29T08:08:40;5.73;;;4.10;;
10333;SDS011;5212;47.892;16.406;2023-12-29T08:11:12;5.97;;;4.50;;
10333;SDS011;5212;47.892;16.406;2023-12-29T08:13:39;7.33;;;4.93;;
10333;SDS011;5212;47.892;16.406;2023-12-29T08:16:06;5.70;;;4.33;;
10333;SDS011;5212;47.892;16.406;2023-12-29T08:18:33;4.90;;;3.30;;
10333;SDS011;5212;47.892;16.406;2023-12-29T08:21:00;6.47;;;4.27;;
10333;SDS011;5212;47.892;16.406;2023-12-29T08:23:26;4.50;;;3.53;;
10333;SDS011;5212;47.892;16.406;2023-12-29T08:25:55;5.83;;;3.87;;
10333;SDS011;5212;47.892;16.406;2023-12-29T08:28:22;5.27;;;3.53;;
10333;SDS011;5212;47.892;16.406;2023-12-29T08:30:49;4.73;;;3.40;;
10333;SDS011;5212;47.892;16.406;2023-12-29T08:33:15;4.83;;;3.50;;
10333;SDS011;5212;47.892;16.406;2023-12-29T08:35:43;3.97;;;3.20;;
10333;SDS011;5212;47.892;16.406;2023-12-29T08:38:11;5.17;;;3.70;;
10333;SDS011;5212;47.892;16.406;2023-12-29T08:40:37;7.73;;;4.17;;
10333;SDS011;5212;47.892;16.406;2023-12-29T08:43:05;6.03;;;4.17;;
10333;SDS011;5212;47.892;16.406;2023-12-29T08:45:32;6.47;;;3.87;;
10333;SDS011;5212;47.892;16.406;2023-12-29T08:47:59;5.00;;;3.50;;
10333;SDS011;5212;47.892;16.406;2023-12-29T08:50:25;6.33;;;3.50;;
10333;SDS011;5212;47.892;16.406;2023-12-29T08:52:52;6.13;;;3.87;;
10333;SDS011;5212;47.892;16.406;2023-12-29T08:55:19;5.43;;;3.50;;
10333;SDS011;5212;47.892;16.406;2023-12-29T08:57:45;3.60;;;2.70;;
10333;SDS011;5212;47.892;16.406;2023-12-29T09:00:14;3.97;;;2.73;;
10333;SDS011;5212;47.892;16.406;2023-12-29T09:02:41;6.13;;;3.80;;
10333;SDS011;5212;47.892;16.406;2023-12-29T09:05:08;5.37;;;3.07;;
10333;SDS011;5212;47.892;16.406;2023-12-29T09:07:35;5.50;;;3.07;;
10333;SDS011;5212;47.892;16.406;2023-12-29T09:10:02;3.63;;;2.57;;
10333;SDS011;5212;47.892;16.406;2023-12-29T09:12:33;3.27;;;2.30;;
10333;SDS011;5212;47.892;16.406;2023-12-29T09:14:59;3.67;;;2.40;;
10333;SDS011;5212;47.892;16.406;2023-12-29T09:17:27;3.17;;;2.37;;
10333;SDS011;5212;47.892;16.406;2023-12-29T09:19:54;3.10;;;1.90;;
10333;SDS011;5212;47.892;16.406;2023-12-29T09:22:21;4.03;;;1.77;;
10333;SDS011;5212;47.892;16.406;2023-12-29T09:24:47;3.63;;;2.77;;
10333;SDS011;5212;47.892;16.406;2023-12-29T09:27:14;3.97;;;1.90;;
10333;SDS011;5212;47.892;16.406;2023-12-29T09:29:42;2.40;;;2.17;;
10333;SDS011;5212;47.892;16.406;2023-12-29T09:32:09;3.60;;;2.13;;
10333;SDS011;5212;47.892;16.406;2023-12-29T09:34:37;3.33;;;2.10;;
10333;SDS011;5212;47.892;16.406;2023-12-29T09:37:03;3.63;;;2.23;;
10333;SDS011;5212;47.892;16.406;2023-12-29T09:39:30;3.30;;;2.30;;
10333;SDS011;5212;47.892;16.406;2023-12-29T09:41:58;3.50;;;2.50;;
10333;SDS011;5212;47.892;16.406;2023-12-29T09:44:25;4.30;;;2.90;;
10333;SDS011;5212;47.892;16.406;2023-12-29T09:46:54;3.50;;;2.50;;
10333;SDS011;5212;47.892;16.406;2023-12-29T09:49:21;3.97;;;2.47;;
10333;SDS011;5212;47.892;16.406;2023-12-29T09:51:49;3.23;;;2.20;;
10333;SDS011;5212;47.892;16.406;2023-12-29T09:54:16;3.87;;;2.20;;
10333;SDS011;5212;47.892;16.406;2023-12-29T09:56:43;3.97;;;2.33;;
10333;SDS011;5212;47.892;16.406;2023-12-29T09:59:10;3.07;;;2.40;;
10333;SDS011;5212;47.892;16.406;2023-12-29T10:01:37;5.03;;;3.20;;
10333;SDS011;5212;47.892;16.406;2023-12-29T10:04:04;4.43;;;2.20;;
10333;SDS011;5212;47.892;16.406;2023-12-29T10:06:31;2.87;;;1.97;;
10333;SDS011;5212;47.892;16.406;2023-12-29T10:09:02;3.93;;;2.10;;
10333;SDS011;5212;47.892;16.406;2023-12-29T10:11:30;3.70;;;1.80;;
10333;SDS011;5212;47.892;16.406;2023-12-29T10:14:02;2.97;;;1.47;;
10333;SDS011;5212;47.892;16.406;2023-12-29T10:16:32;3.33;;;1.67;;
10333;SDS011;5212;47.892;16.406;2023-12-29T10:19:05;3.33;;;2.37;;
10333;SDS011;5212;47.892;16.406;2023-12-29T10:21:37;4.37;;;3.20;;
10333;SDS011;5212;47.892;16.406;2023-12-29T10:24:12;4.87;;;2.30;;
10333;SDS011;5212;47.892;16.406;2023-12-29T10:26:42;3.80;;;2.97;;
10333;SDS011;5212;47.892;16.406;2023-12-29T10:29:09;5.97;;;3.10;;
10333;SDS011;5212;47.892;16.406;2023-12-29T10:31:36;5.20;;;3.50;;
10333;SDS011;5212;47.892;16.406;2023-12-29T10:36:48;6.43;;;4.47;;
10333;SDS011;5212;47.892;16.406;2023-12-29T10:39:17;8.27;;;4.07;;
10333;SDS011;5212;47.892;16.406;2023-12-29T10:41:43;6.13;;;3.83;;
10333;SDS011;5212;47.892;16.406;2023-12-29T10:44:10;5.60;;;3.63;;
10333;SDS011;5212;47.892;16.406;2023-12-29T10:46:37;4.67;;;3.37;;
10333;SDS011;5212;47.892;16.406;2023-12-29T10:49:06;5.67;;;3.53;;
10333;SDS011;5212;47.892;16.406;2023-12-29T10:51:34;5.53;;;3.57;;
10333;SDS011;5212;47.892;16.406;2023-12-29T10:54:01;7.77;;;4.10;;
10333;SDS011;5212;47.892;16.406;2023-12-29T10:56:29;5.67;;;2.90;;
10333;SDS011;5212;47.892;16.406;2023-12-29T10:58:59;3.40;;;2.53;;
10333;SDS011;5212;47.892;16.406;2023-12-29T11:01:27;4.77;;;3.03;;
10333;SDS011;5212;47.892;16.406;2023-12-29T11:03:57;4.33;;;3.13;;
10333;SDS011;5212;47.892;16.406;2023-12-29T11:06:25;8.47;;;3.23;;
10333;SDS011;5212;47.892;16.406;2023-12-29T11:08:52;4.23;;;2.97;;
10333;SDS011;5212;47.892;16.406;2023-12-29T11:11:19;4.17;;;2.83;;
10333;SDS011;5212;47.892;16.406;2023-12-29T11:13:47;3.97;;;2.60;;
10333;SDS011;5212;47.892;16.406;2023-12-29T11:16:14;4.17;;;2.73;;
10333;SDS011;5212;47.892;16.406;2023-12-29T11:18:43;5.03;;;3.00;;
10333;SDS011;5212;47.892;16.406;2023-12-29T11:21:10;4.13;;;3.00;;
10333;SDS011;5212;47.892;16.406;2023-12-29T11:23:37;4.00;;;2.53;;
10333;SDS011;5212;47.892;16.406;2023-12-29T11:26:04;5.17;;;2.60;;
10333;SDS011;5212;47.892;16.406;2023-12-29T11:28:32;3.07;;;2.23;;
10333;SDS011;5212;47.892;16.406;2023-12-29T11:31:00;4.80;;;2.83;;
10333;SDS011;5212;47.892;16.406;2023-12-29T11:33:28;6.40;;;3.33;;
10333;SDS011;5212;47.892;16.406;2023-12-29T11:35:58;3.53;;;2.67;;
10333;SDS011;5212;47.892;16.406;2023-12-29T11:38:33;5.10;;;3.00;;
10333;SDS011;5212;47.892;16.406;2023-12-29T11:41:08;4.90;;;3.10;;
10333;SDS011;5212;47.892;16.406;2023-12-29T11:43:37;4.13;;;3.00;;
10333;SDS011;5212;47.892;16.406;2023-12-29T11:46:05;4.37;;;2.70;;
10333;SDS011;5212;47.892;16.406;2023-12-29T11:51:27;4.73;;;2.87;;
10333;SDS011;5212;47.892;16.406;2023-12-29T11:53:53;5.73;;;3.37;;
10333;SDS011;5212;47.892;16.406;2023-12-29T11:56:20;5.17;;;3.40;;
10333;SDS011;5212;47.892;16.406;2023-12-29T11:58:47;5.70;;;3.40;;
10333;SDS011;5212;47.892;16.406;2023-12-29T12:01:15;4.77;;;3.47;;
10333;SDS011;5212;47.892;16.406;2023-12-29T12:03:59;4.70;;;3.30;;
10333;SDS011;5212;47.892;16.406;2023-12-29T12:06:36;6.43;;;3.10;;
10333;SDS011;5212;47.892;16.406;2023-12-29T12:09:15;5.00;;;2.83;;
10333;SDS011;5212;47.892;16.406;2023-12-29T12:11:43;4.70;;;3.33;;
10333;SDS011;5212;47.892;16.406;2023-12-29T12:14:10;3.83;;;3.13;;
10333;SDS011;5212;47.892;16.406;2023-12-29T12:16:51;4.87;;;3.10;;
10333;SDS011;5212;47.892;16.406;2023-12-29T12:19:19;5.13;;;3.30;;
10333;SDS011;5212;47.892;16.406;2023-12-29T12:21:46;6.97;;;3.73;;
10333;SDS011;5212;47.892;16.406;2023-12-29T12:24:14;4.97;;;3.50;;
10333;SDS011;5212;47.892;16.406;2023-12-29T12:26:42;6.30;;;3.80;;
10333;SDS011;5212;47.892;16.406;2023-12-29T12:29:08;5.37;;;3.67;;
10333;SDS011;5212;47.892;16.406;2023-12-29T12:31:37;6.50;;;3.87;;
10333;SDS011;5212;47.892;16.406;2023-12-29T12:34:05;6.50;;;4.10;;
10333;SDS011;5212;47.892;16.406;2023-12-29T12:36:31;6.50;;;4.00;;
10333;SDS011;5212;47.892;16.406;2023-12-29T12:38:58;5.70;;;4.23;;
10333;SDS011;5212;47.892;16.406;2023-12-29T12:41:26;5.53;;;3.87;;
10333;SDS011;5212;47.892;16.406;2023-12-29T12:43:55;7.53;;;4.23;;
10333;SDS011;5212;47.892;16.406;2023-12-29T12:46:24;6.13;;;4.23;;
10333;SDS011;5212;47.892;16.406;2023-12-29T12:48:51;8.33;;;4.43;;
10333;SDS011;5212;47.892;16.406;2023-12-29T12:51:20;7.27;;;4.30;;
10333;SDS011;5212;47.892;16.406;2023-12-29T12:53:47;9.30;;;4.40;;
10333;SDS011;5212;47.892;16.406;2023-12-29T12:56:14;6.60;;;3.97;;
10333;SDS011;5212;47.892;16.406;2023-12-29T12:58:42;6.93;;;4.13;;
10333;SDS011;5212;47.892;16.406;2023-12-29T13:01:09;6.97;;;4.07;;
10333;SDS011;5212;47.892;16.406;2023-12-29T13:03:36;6.03;;;4.17;;
10333;SDS011;5212;47.892;16.406;2023-12-29T13:06:03;6.10;;;4.40;;
10333;SDS011;5212;47.892;16.406;2023-12-29T13:08:32;8.00;;;4.47;;
10333;SDS011;5212;47.892;16.406;2023-12-29T13:10:59;8.87;;;4.30;;
10333;SDS011;5212;47.892;16.406;2023-12-29T13:13:34;8.63;;;4.80;;
10333;SDS011;5212;47.892;16.406;2023-12-29T13:16:02;6.40;;;4.13;;
10333;SDS011;5212;47.892;16.406;2023-12-29T13:18:29;6.90;;;4.20;;
10333;SDS011;5212;47.892;16.406;2023-12-29T13:20:57;5.20;;;4.00;;
10333;SDS011;5212;47.892;16.406;2023-12-29T13:23:24;6.00;;;4.10;;
10333;SDS011;5212;47.892;16.406;2023-12-29T13:25:54;7.40;;;4.33;;
10333;SDS011;5212;47.892;16.406;2023-12-29T13:28:21;6.10;;;4.00;;
10333;SDS011;5212;47.892;16.406;2023-12-29T13:30:48;7.13;;;3.90;;
10333;SDS011;5212;47.892;16.406;2023-12-29T13:33:16;5.03;;;3.43;;
10333;SDS011;5212;47.892;16.406;2023-12-29T13:35:45;5.40;;;3.30;;
10333;SDS011;5212;47.892;16.406;2023-12-29T13:38:16;5.83;;;3.63;;
10333;SDS011;5212;47.892;16.406;2023-12-29T13:40:46;6.03;;;3.60;;
10333;SDS011;5212;47.892;16.406;2023-12-29T13:43:21;5.30;;;3.10;;
10333;SDS011;5212;47.892;16.406;2023-12-29T13:45:48;5.13;;;3.30;;
10333;SDS011;5212;47.892;16.406;2023-12-29T13:48:15;4.50;;;2.70;;
10333;SDS011;5212;47.892;16.406;2023-12-29T13:50:44;4.80;;;2.93;;
10333;SDS011;5212;47.892;16.406;2023-12-29T13:53:15;4.57;;;3.20;;
10333;SDS011;5212;47.892;16.406;2023-12-29T13:55:42;3.70;;;2.70;;
10333;SDS011;5212;47.892;16.406;2023-12-29T13:58:09;5.00;;;3.23;;
10333;SDS011;5212;47.892;16.406;2023-12-29T14:00:38;6.60;;;4.30;;
10333;SDS011;5212;47.892;16.406;2023-12-29T14:03:06;5.03;;;3.40;;
10333;SDS011;5212;47.892;16.406;2023-12-29T14:05:39;5.27;;;3.30;;
10333;SDS011;5212;47.892;16.406;2023-12-29T14:08:08;4.77;;;3.13;;
10333;SDS011;5212;47.892;16.406;2023-12-29T14:10:36;4.57;;;3.07;;
10333;SDS011;5212;47.892;16.406;2023-12-29T14:13:04;5.70;;;3.77;;
10333;SDS011;5212;47.892;16.406;2023-12-29T14:15:34;4.23;;;2.97;;
10333;SDS011;5212;47.892;16.406;2023-12-29T14:18:03;3.50;;;2.57;;
10333;SDS011;5212;47.892;16.406;2023-12-29T14:20:32;6.00;;;3.67;;
10333;SDS011;5212;47.892;16.406;2023-12-29T14:23:01;2.53;;;2.20;;
10333;SDS011;5212;47.892;16.406;2023-12-29T14:25:28;3.27;;;2.50;;
10333;SDS011;5212;47.892;16.406;2023-12-29T14:27:56;4.63;;;3.33;;
10333;SDS011;5212;47.892;16.406;2023-12-29T14:30:22;3.83;;;2.77;;
10333;SDS011;5212;47.892;16.406;2023-12-29T14:32:49;3.70;;;2.57;;
10333;SDS011;5212;47.892;16.406;2023-12-29T14:35:17;7.40;;;4.50;;
10333;SDS011;5212;47.892;16.406;2023-12-29T14:37:44;4.47;;;3.60;;
10333;SDS011;5212;47.892;16.406;2023-12-29T14:40:11;5.90;;;4.37;;
10333;SDS011;5212;47.892;16.406;2023-12-29T14:42:38;3.73;;;2.90;;
10333;SDS011;5212;47.892;16.406;2023-12-29T14:45:06;4.57;;;3.10;;
10333;SDS011;5212;47.892;16.406;2023-12-29T14:47:34;5.87;;;3.90;;
10333;SDS011;5212;47.892;16.406;2023-12-29T14:50:01;5.30;;;3.17;;
10333;SDS011;5212;47.892;16.406;2023-12-29T14:52:29;5.50;;;3.90;;
10333;SDS011;5212;47.892;16.406;2023-12-29T14:54:55;6.63;;;3.77;;